sensor_id;sensor_type;location;lat;lon;timestamp;P1;durP1;ratioP1;P2;durP2;ratioP2
12884;SDS011;6510;51.362;7.370;2022-07-12T00:01:55;3.67;;;3.37;;
12884;SDS011;6510;51.362;7.370;2022-07-12T00:04:21;4.00;;;3.70;;
12884;SDS011;6510;51.362;7.370;2022-07-12T00:06:46;4.20;;;3.80;;
12884;SDS011;6510;51.362;7.370;2022-07-12T00:09:12;5.80;;;3.93;;
12884;SDS011;6510;51.362;7.370;2022-07-12T00:11:38;4.07;;;3.77;;
12884;SDS011;6510;51.362;7.370;2022-07-12T00:14:04;4.40;;;4.10;;
12884;SDS011;6510;51.362;7.370;2022-07-12T00:16:30;4.10;;;3.80;;
12884;SDS011;6510;51.362;7.370;2022-07-12T00:18:56;3.90;;;3.60;;
12884;SDS011;6510;51.362;7.370;2022-07-12T00:21:22;4.47;;;4.07;;
12884;SDS011;6510;51.362;7.370;2022-07-12T00:23:48;3.80;;;3.50;;
12884;SDS011;6510;51.362;7.370;2022-07-12T00:26:13;3.57;;;3.37;;
12884;SDS011;6510;51.362;7.370;2022-07-12T00:28:39;4.20;;;3.80;;
12884;SDS011;6510;51.362;7.370;2022-07-12T00:31:05;4.30;;;3.90;;
12884;SDS011;6510;51.362;7.370;2022-07-12T00:33:30;4.80;;;4.30;;
12884;SDS011;6510;51.362;7.370;2022-07-12T00:35:56;4.00;;;3.70;;
12884;SDS011;6510;51.362;7.370;2022-07-12T00:38:22;3.97;;;3.70;;
12884;SDS011;6510;51.362;7.370;2022-07-12T00:40:48;4.30;;;3.90;;
12884;SDS011;6510;51.362;7.370;2022-07-12T00:43:14;4.30;;;3.90;;
12884;SDS011;6510;51.362;7.370;2022-07-12T00:45:40;4.10;;;3.70;;
12884;SDS011;6510;51.362;7.370;2022-07-12T00:48:06;5.27;;;4.13;;
12884;SDS011;6510;51.362;7.370;2022-07-12T00:50:33;4.00;;;3.70;;
12884;SDS011;6510;51.362;7.370;2022-07-12T00:52:59;4.80;;;4.40;;
12884;SDS011;6510;51.362;7.370;2022-07-12T00:55:25;5.67;;;4.10;;
12884;SDS011;6510;51.362;7.370;2022-07-12T00:57:51;3.77;;;3.47;;
12884;SDS011;6510;51.362;7.370;2022-07-12T01:00:22;4.40;;;4.10;;
12884;SDS011;6510;51.362;7.370;2022-07-12T01:02:49;4.40;;;3.97;;
12884;SDS011;6510;51.362;7.370;2022-07-12T01:05:17;4.73;;;4.17;;
12884;SDS011;6510;51.362;7.370;2022-07-12T01:07:43;4.50;;;4.10;;
12884;SDS011;6510;51.362;7.370;2022-07-12T01:10:10;3.87;;;3.57;;
12884;SDS011;6510;51.362;7.370;2022-07-12T01:12:36;3.60;;;3.30;;
12884;SDS011;6510;51.362;7.370;2022-07-12T01:15:01;3.90;;;3.60;;
12884;SDS011;6510;51.362;7.370;2022-07-12T01:17:30;4.00;;;3.70;;
12884;SDS011;6510;51.362;7.370;2022-07-12T01:19:56;4.27;;;3.93;;
12884;SDS011;6510;51.362;7.370;2022-07-12T01:22:27;3.83;;;3.50;;
12884;SDS011;6510;51.362;7.370;2022-07-12T01:24:56;4.50;;;4.10;;
12884;SDS011;6510;51.362;7.370;2022-07-12T01:27:22;4.30;;;3.90;;
12884;SDS011;6510;51.362;7.370;2022-07-12T01:29:47;5.53;;;3.77;;
12884;SDS011;6510;51.362;7.370;2022-07-12T01:32:13;3.97;;;3.57;;
12884;SDS011;6510;51.362;7.370;2022-07-12T01:34:52;3.67;;;3.37;;
12884;SDS011;6510;51.362;7.370;2022-07-12T01:37:18;3.50;;;3.30;;
12884;SDS011;6510;51.362;7.370;2022-07-12T01:39:45;3.53;;;3.23;;
12884;SDS011;6510;51.362;7.370;2022-07-12T01:42:12;3.90;;;3.60;;
12884;SDS011;6510;51.362;7.370;2022-07-12T01:44:38;3.90;;;3.50;;
12884;SDS011;6510;51.362;7.370;2022-07-12T01:47:04;4.00;;;3.70;;
12884;SDS011;6510;51.362;7.370;2022-07-12T01:49:30;4.20;;;3.90;;
12884;SDS011;6510;51.362;7.370;2022-07-12T01:51:55;5.53;;;4.83;;
12884;SDS011;6510;51.362;7.370;2022-07-12T01:54:23;5.10;;;4.70;;
12884;SDS011;6510;51.362;7.370;2022-07-12T01:56:50;4.63;;;4.20;;
12884;SDS011;6510;51.362;7.370;2022-07-12T01:59:19;4.70;;;4.40;;
12884;SDS011;6510;51.362;7.370;2022-07-12T02:01:48;5.93;;;4.10;;
12884;SDS011;6510;51.362;7.370;2022-07-12T02:04:19;4.80;;;4.40;;
12884;SDS011;6510;51.362;7.370;2022-07-12T02:06:45;4.13;;;3.83;;
12884;SDS011;6510;51.362;7.370;2022-07-12T02:09:11;4.43;;;4.07;;
12884;SDS011;6510;51.362;7.370;2022-07-12T02:11:37;4.57;;;4.17;;
12884;SDS011;6510;51.362;7.370;2022-07-12T02:14:03;4.27;;;3.97;;
12884;SDS011;6510;51.362;7.370;2022-07-12T02:16:29;5.20;;;3.97;;
12884;SDS011;6510;51.362;7.370;2022-07-12T02:18:54;4.80;;;4.33;;
12884;SDS011;6510;51.362;7.370;2022-07-12T02:21:20;6.17;;;4.20;;
12884;SDS011;6510;51.362;7.370;2022-07-12T02:23:46;5.20;;;4.80;;
12884;SDS011;6510;51.362;7.370;2022-07-12T02:26:12;4.93;;;4.53;;
12884;SDS011;6510;51.362;7.370;2022-07-12T02:28:37;4.80;;;4.40;;
12884;SDS011;6510;51.362;7.370;2022-07-12T02:31:03;4.30;;;3.90;;
12884;SDS011;6510;51.362;7.370;2022-07-12T02:33:29;5.23;;;4.67;;
12884;SDS011;6510;51.362;7.370;2022-07-12T02:35:54;4.67;;;4.27;;
12884;SDS011;6510;51.362;7.370;2022-07-12T02:38:20;4.80;;;4.40;;
12884;SDS011;6510;51.362;7.370;2022-07-12T02:40:46;4.97;;;4.47;;
12884;SDS011;6510;51.362;7.370;2022-07-12T02:43:22;5.87;;;4.20;;
12884;SDS011;6510;51.362;7.370;2022-07-12T02:45:49;4.87;;;4.53;;
12884;SDS011;6510;51.362;7.370;2022-07-12T02:48:15;5.13;;;4.73;;
12884;SDS011;6510;51.362;7.370;2022-07-12T02:50:41;5.67;;;4.93;;
12884;SDS011;6510;51.362;7.370;2022-07-12T02:53:08;5.43;;;5.00;;
12884;SDS011;6510;51.362;7.370;2022-07-12T02:55:34;5.30;;;4.90;;
12884;SDS011;6510;51.362;7.370;2022-07-12T02:58:00;6.00;;;5.47;;
12884;SDS011;6510;51.362;7.370;2022-07-12T03:00:26;5.83;;;5.33;;
12884;SDS011;6510;51.362;7.370;2022-07-12T03:02:52;6.07;;;5.47;;
12884;SDS011;6510;51.362;7.370;2022-07-12T03:05:17;5.60;;;5.20;;
12884;SDS011;6510;51.362;7.370;2022-07-12T03:07:43;5.40;;;5.00;;
12884;SDS011;6510;51.362;7.370;2022-07-12T03:10:09;5.17;;;4.77;;
12884;SDS011;6510;51.362;7.370;2022-07-12T03:12:36;5.80;;;4.73;;
12884;SDS011;6510;51.362;7.370;2022-07-12T03:15:02;5.60;;;5.10;;
12884;SDS011;6510;51.362;7.370;2022-07-12T03:17:28;5.57;;;5.00;;
12884;SDS011;6510;51.362;7.370;2022-07-12T03:19:54;5.03;;;4.63;;
12884;SDS011;6510;51.362;7.370;2022-07-12T03:22:19;4.97;;;4.57;;
12884;SDS011;6510;51.362;7.370;2022-07-12T03:24:45;5.87;;;5.37;;
12884;SDS011;6510;51.362;7.370;2022-07-12T03:27:10;5.27;;;4.80;;
12884;SDS011;6510;51.362;7.370;2022-07-12T03:29:36;5.60;;;5.10;;
12884;SDS011;6510;51.362;7.370;2022-07-12T03:32:02;5.27;;;4.87;;
12884;SDS011;6510;51.362;7.370;2022-07-12T03:34:28;5.27;;;4.87;;
12884;SDS011;6510;51.362;7.370;2022-07-12T03:36:54;5.50;;;5.00;;
12884;SDS011;6510;51.362;7.370;2022-07-12T03:39:19;5.03;;;4.70;;
12884;SDS011;6510;51.362;7.370;2022-07-12T03:41:45;5.63;;;5.23;;
12884;SDS011;6510;51.362;7.370;2022-07-12T03:44:11;5.20;;;4.80;;
12884;SDS011;6510;51.362;7.370;2022-07-12T03:46:36;5.40;;;5.00;;
12884;SDS011;6510;51.362;7.370;2022-07-12T03:49:02;5.70;;;5.20;;
12884;SDS011;6510;51.362;7.370;2022-07-12T03:51:28;6.20;;;5.67;;
12884;SDS011;6510;51.362;7.370;2022-07-12T03:53:53;7.00;;;6.40;;
12884;SDS011;6510;51.362;7.370;2022-07-12T03:56:19;6.77;;;6.17;;
12884;SDS011;6510;51.362;7.370;2022-07-12T03:59:03;6.87;;;6.17;;
12884;SDS011;6510;51.362;7.370;2022-07-12T04:01:29;6.57;;;5.97;;
12884;SDS011;6510;51.362;7.370;2022-07-12T04:03:55;6.00;;;5.50;;
12884;SDS011;6510;51.362;7.370;2022-07-12T04:06:21;6.07;;;5.57;;
12884;SDS011;6510;51.362;7.370;2022-07-12T04:08:46;5.90;;;5.40;;
12884;SDS011;6510;51.362;7.370;2022-07-12T04:11:12;6.10;;;5.43;;
12884;SDS011;6510;51.362;7.370;2022-07-12T04:13:38;6.93;;;6.00;;
12884;SDS011;6510;51.362;7.370;2022-07-12T04:16:04;6.50;;;5.93;;
12884;SDS011;6510;51.362;7.370;2022-07-12T04:18:30;6.77;;;6.13;;
12884;SDS011;6510;51.362;7.370;2022-07-12T04:20:56;6.37;;;5.70;;
12884;SDS011;6510;51.362;7.370;2022-07-12T04:23:22;6.90;;;6.20;;
12884;SDS011;6510;51.362;7.370;2022-07-12T04:25:47;6.47;;;5.87;;
12884;SDS011;6510;51.362;7.370;2022-07-12T04:28:13;6.33;;;5.80;;
12884;SDS011;6510;51.362;7.370;2022-07-12T04:30:39;7.03;;;5.83;;
12884;SDS011;6510;51.362;7.370;2022-07-12T04:33:04;6.30;;;5.80;;
12884;SDS011;6510;51.362;7.370;2022-07-12T04:35:30;6.43;;;5.83;;
12884;SDS011;6510;51.362;7.370;2022-07-12T04:37:56;9.03;;;6.37;;
12884;SDS011;6510;51.362;7.370;2022-07-12T04:40:22;7.50;;;6.33;;
12884;SDS011;6510;51.362;7.370;2022-07-12T04:42:47;6.30;;;5.67;;
12884;SDS011;6510;51.362;7.370;2022-07-12T04:45:13;6.97;;;6.27;;
12884;SDS011;6510;51.362;7.370;2022-07-12T04:47:39;6.63;;;5.87;;
12884;SDS011;6510;51.362;7.370;2022-07-12T04:50:07;7.13;;;5.97;;
12884;SDS011;6510;51.362;7.370;2022-07-12T04:52:34;8.67;;;6.50;;
12884;SDS011;6510;51.362;7.370;2022-07-12T04:55:00;6.70;;;6.10;;
12884;SDS011;6510;51.362;7.370;2022-07-12T04:57:26;6.90;;;6.20;;
12884;SDS011;6510;51.362;7.370;2022-07-12T04:59:51;6.67;;;6.07;;
12884;SDS011;6510;51.362;7.370;2022-07-12T05:02:17;7.00;;;6.30;;
12884;SDS011;6510;51.362;7.370;2022-07-12T05:04:43;6.80;;;6.00;;
12884;SDS011;6510;51.362;7.370;2022-07-12T05:07:09;6.90;;;5.30;;
12884;SDS011;6510;51.362;7.370;2022-07-12T05:09:34;10.43;;;5.40;;
12884;SDS011;6510;51.362;7.370;2022-07-12T05:12:00;9.37;;;5.00;;
12884;SDS011;6510;51.362;7.370;2022-07-12T05:14:26;4.37;;;3.97;;
12884;SDS011;6510;51.362;7.370;2022-07-12T05:16:51;8.77;;;4.27;;
12884;SDS011;6510;51.362;7.370;2022-07-12T05:19:17;5.45;;;3.60;;
12884;SDS011;6510;51.362;7.370;2022-07-12T05:21:43;5.13;;;3.63;;
12884;SDS011;6510;51.362;7.370;2022-07-12T05:24:09;3.88;;;3.58;;
12884;SDS011;6510;51.362;7.370;2022-07-12T05:26:35;6.40;;;3.88;;
12884;SDS011;6510;51.362;7.370;2022-07-12T05:29:00;4.40;;;3.92;;
12884;SDS011;6510;51.362;7.370;2022-07-12T05:31:27;4.72;;;4.32;;
12884;SDS011;6510;51.362;7.370;2022-07-12T05:33:52;5.18;;;4.30;;
12884;SDS011;6510;51.362;7.370;2022-07-12T05:36:18;4.35;;;3.90;;
12884;SDS011;6510;51.362;7.370;2022-07-12T05:38:44;4.40;;;3.50;;
12884;SDS011;6510;51.362;7.370;2022-07-12T05:41:10;3.92;;;3.40;;
12884;SDS011;6510;51.362;7.370;2022-07-12T05:43:36;3.83;;;3.50;;
12884;SDS011;6510;51.362;7.370;2022-07-12T05:46:01;3.60;;;3.30;;
12884;SDS011;6510;51.362;7.370;2022-07-12T05:48:28;3.85;;;3.55;;
12884;SDS011;6510;51.362;7.370;2022-07-12T05:50:53;3.78;;;3.47;;
12884;SDS011;6510;51.362;7.370;2022-07-12T05:53:19;5.00;;;3.67;;
12884;SDS011;6510;51.362;7.370;2022-07-12T05:55:51;4.05;;;3.67;;
12884;SDS011;6510;51.362;7.370;2022-07-12T05:58:18;4.15;;;3.55;;
12884;SDS011;6510;51.362;7.370;2022-07-12T06:00:45;4.15;;;3.60;;
12884;SDS011;6510;51.362;7.370;2022-07-12T06:03:11;4.20;;;3.80;;
12884;SDS011;6510;51.362;7.370;2022-07-12T06:05:41;4.07;;;3.75;;
12884;SDS011;6510;51.362;7.370;2022-07-12T06:08:06;4.43;;;4.13;;
12884;SDS011;6510;51.362;7.370;2022-07-12T06:10:32;3.90;;;3.60;;
12884;SDS011;6510;51.362;7.370;2022-07-12T06:12:58;3.40;;;3.15;;
12884;SDS011;6510;51.362;7.370;2022-07-12T06:15:25;3.90;;;3.40;;
12884;SDS011;6510;51.362;7.370;2022-07-12T06:17:51;3.75;;;3.45;;
12884;SDS011;6510;51.362;7.370;2022-07-12T06:20:17;3.53;;;3.22;;
12884;SDS011;6510;51.362;7.370;2022-07-12T06:22:42;3.10;;;2.85;;
12884;SDS011;6510;51.362;7.370;2022-07-12T06:25:08;3.20;;;2.90;;
12884;SDS011;6510;51.362;7.370;2022-07-12T06:27:34;2.95;;;2.75;;
12884;SDS011;6510;51.362;7.370;2022-07-12T06:30:00;3.28;;;3.08;;
12884;SDS011;6510;51.362;7.370;2022-07-12T06:32:26;3.92;;;3.63;;
12884;SDS011;6510;51.362;7.370;2022-07-12T06:34:51;3.75;;;3.45;;
12884;SDS011;6510;51.362;7.370;2022-07-12T06:37:17;3.22;;;2.95;;
12884;SDS011;6510;51.362;7.370;2022-07-12T06:39:43;3.25;;;3.05;;
12884;SDS011;6510;51.362;7.370;2022-07-12T06:42:09;3.88;;;3.50;;
12884;SDS011;6510;51.362;7.370;2022-07-12T06:44:35;3.42;;;3.22;;
12884;SDS011;6510;51.362;7.370;2022-07-12T06:47:01;4.60;;;4.30;;
12884;SDS011;6510;51.362;7.370;2022-07-12T06:49:26;4.07;;;3.78;;
12884;SDS011;6510;51.362;7.370;2022-07-12T06:51:52;4.18;;;3.60;;
12884;SDS011;6510;51.362;7.370;2022-07-12T06:54:18;4.72;;;4.32;;
12884;SDS011;6510;51.362;7.370;2022-07-12T06:56:44;4.00;;;3.70;;
12884;SDS011;6510;51.362;7.370;2022-07-12T06:59:09;3.85;;;3.55;;
12884;SDS011;6510;51.362;7.370;2022-07-12T07:01:38;3.97;;;3.58;;
12884;SDS011;6510;51.362;7.370;2022-07-12T07:04:03;3.70;;;3.50;;
12884;SDS011;6510;51.362;7.370;2022-07-12T07:06:29;5.47;;;3.50;;
12884;SDS011;6510;51.362;7.370;2022-07-12T07:08:55;3.58;;;3.30;;
12884;SDS011;6510;51.362;7.370;2022-07-12T07:11:20;3.40;;;3.10;;
12884;SDS011;6510;51.362;7.370;2022-07-12T07:13:46;3.88;;;3.58;;
12884;SDS011;6510;51.362;7.370;2022-07-12T07:16:11;3.10;;;2.90;;
12884;SDS011;6510;51.362;7.370;2022-07-12T07:18:38;3.10;;;2.90;;
12884;SDS011;6510;51.362;7.370;2022-07-12T07:21:05;2.90;;;2.70;;
12884;SDS011;6510;51.362;7.370;2022-07-12T07:23:31;4.95;;;2.83;;
12884;SDS011;6510;51.362;7.370;2022-07-12T07:25:57;3.25;;;3.00;;
12884;SDS011;6510;51.362;7.370;2022-07-12T07:28:23;3.10;;;2.90;;
12884;SDS011;6510;51.362;7.370;2022-07-12T07:30:49;2.53;;;2.33;;
12884;SDS011;6510;51.362;7.370;2022-07-12T07:33:17;3.08;;;2.22;;
12884;SDS011;6510;51.362;7.370;2022-07-12T07:35:44;2.40;;;2.30;;
12884;SDS011;6510;51.362;7.370;2022-07-12T07:38:10;1.90;;;1.80;;
12884;SDS011;6510;51.362;7.370;2022-07-12T07:40:36;2.55;;;2.33;;
12884;SDS011;6510;51.362;7.370;2022-07-12T07:43:02;2.42;;;2.22;;
12884;SDS011;6510;51.362;7.370;2022-07-12T07:45:27;2.20;;;2.10;;
12884;SDS011;6510;51.362;7.370;2022-07-12T07:47:53;3.00;;;2.80;;
12884;SDS011;6510;51.362;7.370;2022-07-12T07:50:19;2.35;;;2.15;;
12884;SDS011;6510;51.362;7.370;2022-07-12T07:52:44;2.00;;;1.90;;
12884;SDS011;6510;51.362;7.370;2022-07-12T07:55:10;2.17;;;2.08;;
12884;SDS011;6510;51.362;7.370;2022-07-12T07:57:36;2.25;;;2.15;;
12884;SDS011;6510;51.362;7.370;2022-07-12T08:00:02;2.17;;;1.98;;
12884;SDS011;6510;51.362;7.370;2022-07-12T08:02:28;2.40;;;2.30;;
12884;SDS011;6510;51.362;7.370;2022-07-12T08:04:54;2.95;;;1.92;;
12884;SDS011;6510;51.362;7.370;2022-07-12T08:07:19;2.35;;;2.25;;
12884;SDS011;6510;51.362;7.370;2022-07-12T08:09:45;2.33;;;2.22;;
12884;SDS011;6510;51.362;7.370;2022-07-12T08:12:11;2.60;;;2.40;;
12884;SDS011;6510;51.362;7.370;2022-07-12T08:14:36;2.22;;;2.03;;
12884;SDS011;6510;51.362;7.370;2022-07-12T08:17:02;1.90;;;1.80;;
12884;SDS011;6510;51.362;7.370;2022-07-12T08:19:28;2.00;;;1.80;;
12884;SDS011;6510;51.362;7.370;2022-07-12T08:21:53;2.17;;;1.48;;
12884;SDS011;6510;51.362;7.370;2022-07-12T08:24:19;1.40;;;1.40;;
12884;SDS011;6510;51.362;7.370;2022-07-12T08:26:45;1.38;;;1.27;;
12884;SDS011;6510;51.362;7.370;2022-07-12T08:29:10;1.60;;;1.50;;
12884;SDS011;6510;51.362;7.370;2022-07-12T08:31:36;2.08;;;1.60;;
12884;SDS011;6510;51.362;7.370;2022-07-12T08:34:02;1.70;;;1.60;;
12884;SDS011;6510;51.362;7.370;2022-07-12T08:36:27;1.70;;;1.50;;
12884;SDS011;6510;51.362;7.370;2022-07-12T08:38:53;2.67;;;1.40;;
12884;SDS011;6510;51.362;7.370;2022-07-12T08:41:19;1.30;;;1.30;;
12884;SDS011;6510;51.362;7.370;2022-07-12T08:43:44;1.73;;;1.63;;
12884;SDS011;6510;51.362;7.370;2022-07-12T08:46:11;1.27;;;1.27;;
12884;SDS011;6510;51.362;7.370;2022-07-12T08:48:38;1.48;;;1.48;;
12884;SDS011;6510;51.362;7.370;2022-07-12T08:51:12;1.52;;;1.52;;
12884;SDS011;6510;51.362;7.370;2022-07-12T08:53:39;1.67;;;1.52;;
12884;SDS011;6510;51.362;7.370;2022-07-12T08:56:05;1.27;;;1.27;;
12884;SDS011;6510;51.362;7.370;2022-07-12T08:58:32;1.45;;;1.45;;
12884;SDS011;6510;51.362;7.370;2022-07-12T09:00:58;1.38;;;1.38;;
12884;SDS011;6510;51.362;7.370;2022-07-12T09:03:25;1.73;;;1.55;;
12884;SDS011;6510;51.362;7.370;2022-07-12T09:05:54;1.42;;;1.42;;
12884;SDS011;6510;51.362;7.370;2022-07-12T09:08:26;2.40;;;1.45;;
12884;SDS011;6510;51.362;7.370;2022-07-12T09:10:54;2.33;;;1.80;;
12884;SDS011;6510;51.362;7.370;2022-07-12T09:13:21;1.90;;;1.58;;
12884;SDS011;6510;51.362;7.370;2022-07-12T09:16:17;1.80;;;1.70;;
12884;SDS011;6510;51.362;7.370;2022-07-12T09:18:45;1.67;;;1.58;;
12884;SDS011;6510;51.362;7.370;2022-07-12T09:22:13;1.63;;;1.58;;
12884;SDS011;6510;51.362;7.370;2022-07-12T09:24:11;1.88;;;1.70;;
12884;SDS011;6510;51.362;7.370;2022-07-12T09:26:37;1.70;;;1.60;;
12884;SDS011;6510;51.362;7.370;2022-07-12T09:29:09;1.48;;;1.48;;
12884;SDS011;6510;51.362;7.370;2022-07-12T09:34:28;1.73;;;1.63;;
12884;SDS011;6510;51.362;7.370;2022-07-12T09:37:14;1.70;;;1.60;;
12884;SDS011;6510;51.362;7.370;2022-07-12T09:39:40;2.00;;;1.90;;
12884;SDS011;6510;51.362;7.370;2022-07-12T09:42:07;1.50;;;1.50;;
12884;SDS011;6510;51.362;7.370;2022-07-12T09:44:37;1.60;;;1.50;;
12884;SDS011;6510;51.362;7.370;2022-07-12T09:47:04;1.60;;;1.60;;
12884;SDS011;6510;51.362;7.370;2022-07-12T09:49:37;1.88;;;1.67;;
12884;SDS011;6510;51.362;7.370;2022-07-12T09:52:04;1.30;;;1.30;;
12884;SDS011;6510;51.362;7.370;2022-07-12T09:54:31;1.48;;;1.48;;
12884;SDS011;6510;51.362;7.370;2022-07-12T09:57:04;1.35;;;1.35;;
12884;SDS011;6510;51.362;7.370;2022-07-12T09:59:44;1.60;;;1.50;;
12884;SDS011;6510;51.362;7.370;2022-07-12T10:02:11;2.60;;;1.38;;
12884;SDS011;6510;51.362;7.370;2022-07-12T10:04:41;1.55;;;1.50;;
12884;SDS011;6510;51.362;7.370;2022-07-12T10:07:08;1.60;;;1.60;;
12884;SDS011;6510;51.362;7.370;2022-07-12T10:09:41;1.40;;;1.40;;
12884;SDS011;6510;51.362;7.370;2022-07-12T10:12:10;1.50;;;1.40;;
12884;SDS011;6510;51.362;7.370;2022-07-12T10:14:38;1.63;;;1.52;;
12884;SDS011;6510;51.362;7.370;2022-07-12T10:17:05;1.27;;;1.27;;
12884;SDS011;6510;51.362;7.370;2022-07-12T10:19:34;1.45;;;1.45;;
12884;SDS011;6510;51.362;7.370;2022-07-12T10:22:02;1.50;;;1.40;;
12884;SDS011;6510;51.362;7.370;2022-07-12T10:27:40;1.50;;;1.50;;
12884;SDS011;6510;51.362;7.370;2022-07-12T10:29:48;1.20;;;1.20;;
12884;SDS011;6510;51.362;7.370;2022-07-12T10:32:23;1.33;;;1.33;;
12884;SDS011;6510;51.362;7.370;2022-07-12T10:34:58;1.40;;;1.40;;
12884;SDS011;6510;51.362;7.370;2022-07-12T10:37:25;1.60;;;1.50;;
12884;SDS011;6510;51.362;7.370;2022-07-12T10:42:35;1.30;;;1.30;;
12884;SDS011;6510;51.362;7.370;2022-07-12T10:45:16;1.55;;;1.42;;
12884;SDS011;6510;51.362;7.370;2022-07-12T10:47:57;1.52;;;1.52;;
12884;SDS011;6510;51.362;7.370;2022-07-12T10:58:31;1.42;;;1.42;;
12884;SDS011;6510;51.362;7.370;2022-07-12T11:01:02;1.40;;;1.40;;
12884;SDS011;6510;51.362;7.370;2022-07-12T11:03:53;1.42;;;1.42;;
12884;SDS011;6510;51.362;7.370;2022-07-12T11:06:20;1.42;;;1.42;;
12884;SDS011;6510;51.362;7.370;2022-07-12T11:11:28;1.50;;;1.40;;
12884;SDS011;6510;51.362;7.370;2022-07-12T11:13:56;1.70;;;1.60;;
12884;SDS011;6510;51.362;7.370;2022-07-12T11:16:23;1.98;;;1.88;;
12884;SDS011;6510;51.362;7.370;2022-07-12T11:18:50;1.77;;;1.77;;
12884;SDS011;6510;51.362;7.370;2022-07-12T11:21:17;1.73;;;1.70;;
12884;SDS011;6510;51.362;7.370;2022-07-12T11:23:43;1.55;;;1.55;;
12884;SDS011;6510;51.362;7.370;2022-07-12T11:26:13;1.80;;;1.70;;
12884;SDS011;6510;51.362;7.370;2022-07-12T11:28:40;1.80;;;1.70;;
12884;SDS011;6510;51.362;7.370;2022-07-12T11:31:11;1.67;;;1.58;;
12884;SDS011;6510;51.362;7.370;2022-07-12T11:33:40;1.60;;;1.50;;
12884;SDS011;6510;51.362;7.370;2022-07-12T11:36:08;1.60;;;1.60;;
12884;SDS011;6510;51.362;7.370;2022-07-12T11:38:40;1.55;;;1.50;;
12884;SDS011;6510;51.362;7.370;2022-07-12T11:41:07;1.58;;;1.52;;
12884;SDS011;6510;51.362;7.370;2022-07-12T11:43:34;1.52;;;1.45;;
12884;SDS011;6510;51.362;7.370;2022-07-12T11:46:00;1.60;;;1.60;;
12884;SDS011;6510;51.362;7.370;2022-07-12T11:48:27;1.60;;;1.50;;
12884;SDS011;6510;51.362;7.370;2022-07-12T11:50:59;1.40;;;1.40;;
12884;SDS011;6510;51.362;7.370;2022-07-12T11:53:32;1.30;;;1.30;;
12884;SDS011;6510;51.362;7.370;2022-07-12T11:56:01;1.60;;;1.60;;
12884;SDS011;6510;51.362;7.370;2022-07-12T11:58:28;1.60;;;1.60;;
12884;SDS011;6510;51.362;7.370;2022-07-12T12:00:55;1.85;;;1.75;;
12884;SDS011;6510;51.362;7.370;2022-07-12T12:03:21;1.60;;;1.60;;
12884;SDS011;6510;51.362;7.370;2022-07-12T12:05:48;2.15;;;1.50;;
12884;SDS011;6510;51.362;7.370;2022-07-12T12:08:15;1.50;;;1.50;;
12884;SDS011;6510;51.362;7.370;2022-07-12T12:10:41;1.35;;;1.35;;
12884;SDS011;6510;51.362;7.370;2022-07-12T12:13:17;1.42;;;1.33;;
12884;SDS011;6510;51.362;7.370;2022-07-12T12:15:50;1.52;;;1.52;;
12884;SDS011;6510;51.362;7.370;2022-07-12T12:18:27;1.40;;;1.40;;
12884;SDS011;6510;51.362;7.370;2022-07-12T12:21:01;1.42;;;1.40;;
12884;SDS011;6510;51.362;7.370;2022-07-12T12:23:31;1.40;;;1.40;;
12884;SDS011;6510;51.362;7.370;2022-07-12T12:26:16;1.60;;;1.50;;
12884;SDS011;6510;51.362;7.370;2022-07-12T12:31:16;1.80;;;1.70;;
12884;SDS011;6510;51.362;7.370;2022-07-12T12:33:52;1.80;;;1.70;;
12884;SDS011;6510;51.362;7.370;2022-07-12T12:38:57;1.20;;;1.20;;
12884;SDS011;6510;51.362;7.370;2022-07-12T12:41:37;1.42;;;1.42;;
12884;SDS011;6510;51.362;7.370;2022-07-12T12:44:05;1.77;;;1.67;;
12884;SDS011;6510;51.362;7.370;2022-07-12T12:52:14;1.50;;;1.50;;
12884;SDS011;6510;51.362;7.370;2022-07-12T12:54:40;1.30;;;1.30;;
12884;SDS011;6510;51.362;7.370;2022-07-12T12:57:06;1.20;;;1.20;;
12884;SDS011;6510;51.362;7.370;2022-07-12T12:59:35;1.33;;;1.33;;
12884;SDS011;6510;51.362;7.370;2022-07-12T13:02:02;2.15;;;1.40;;
12884;SDS011;6510;51.362;7.370;2022-07-12T13:04:29;1.15;;;1.15;;
12884;SDS011;6510;51.362;7.370;2022-07-12T13:06:55;1.27;;;1.27;;
12884;SDS011;6510;51.362;7.370;2022-07-12T13:09:21;1.65;;;1.23;;
12884;SDS011;6510;51.362;7.370;2022-07-12T13:11:47;1.25;;;1.15;;
12884;SDS011;6510;51.362;7.370;2022-07-12T13:14:13;1.05;;;1.05;;
12884;SDS011;6510;51.362;7.370;2022-07-12T13:16:39;1.27;;;1.27;;
12884;SDS011;6510;51.362;7.370;2022-07-12T13:19:05;1.27;;;1.27;;
12884;SDS011;6510;51.362;7.370;2022-07-12T13:21:32;1.25;;;1.25;;
12884;SDS011;6510;51.362;7.370;2022-07-12T13:23:58;1.30;;;1.30;;
12884;SDS011;6510;51.362;7.370;2022-07-12T13:26:23;1.30;;;1.30;;
12884;SDS011;6510;51.362;7.370;2022-07-12T13:28:49;1.48;;;1.38;;
12884;SDS011;6510;51.362;7.370;2022-07-12T13:31:15;1.45;;;1.35;;
12884;SDS011;6510;51.362;7.370;2022-07-12T13:33:41;1.35;;;1.20;;
12884;SDS011;6510;51.362;7.370;2022-07-12T13:36:07;1.00;;;1.00;;
12884;SDS011;6510;51.362;7.370;2022-07-12T13:38:33;1.27;;;1.20;;
12884;SDS011;6510;51.362;7.370;2022-07-12T13:40:58;1.10;;;1.10;;
12884;SDS011;6510;51.362;7.370;2022-07-12T13:43:24;1.25;;;1.20;;
12884;SDS011;6510;51.362;7.370;2022-07-12T13:45:51;1.00;;;1.00;;
12884;SDS011;6510;51.362;7.370;2022-07-12T13:48:17;1.30;;;1.30;;
12884;SDS011;6510;51.362;7.370;2022-07-12T13:50:46;1.20;;;1.20;;
12884;SDS011;6510;51.362;7.370;2022-07-12T13:53:12;1.20;;;1.20;;
12884;SDS011;6510;51.362;7.370;2022-07-12T13:55:38;1.23;;;1.13;;
12884;SDS011;6510;51.362;7.370;2022-07-12T13:58:07;1.30;;;1.30;;
12884;SDS011;6510;51.362;7.370;2022-07-12T14:00:33;1.45;;;1.40;;
12884;SDS011;6510;51.362;7.370;2022-07-12T14:02:59;1.40;;;1.30;;
12884;SDS011;6510;51.362;7.370;2022-07-12T14:05:24;1.60;;;1.10;;
12884;SDS011;6510;51.362;7.370;2022-07-12T14:07:50;1.50;;;1.45;;
12884;SDS011;6510;51.362;7.370;2022-07-12T14:10:16;1.40;;;1.30;;
12884;SDS011;6510;51.362;7.370;2022-07-12T14:12:43;2.47;;;1.40;;
12884;SDS011;6510;51.362;7.370;2022-07-12T14:15:10;1.20;;;1.20;;
12884;SDS011;6510;51.362;7.370;2022-07-12T14:17:43;1.00;;;1.00;;
12884;SDS011;6510;51.362;7.370;2022-07-12T14:20:15;1.15;;;1.15;;
12884;SDS011;6510;51.362;7.370;2022-07-12T14:22:45;5.05;;;1.20;;
12884;SDS011;6510;51.362;7.370;2022-07-12T14:25:12;1.20;;;1.15;;
12884;SDS011;6510;51.362;7.370;2022-07-12T14:27:38;2.60;;;1.30;;
12884;SDS011;6510;51.362;7.370;2022-07-12T14:30:05;1.20;;;1.20;;
12884;SDS011;6510;51.362;7.370;2022-07-12T14:32:32;1.17;;;1.13;;
12884;SDS011;6510;51.362;7.370;2022-07-12T14:34:59;1.27;;;1.27;;
12884;SDS011;6510;51.362;7.370;2022-07-12T14:37:24;1.20;;;1.10;;
12884;SDS011;6510;51.362;7.370;2022-07-12T14:39:50;1.13;;;1.13;;
12884;SDS011;6510;51.362;7.370;2022-07-12T14:42:16;1.00;;;1.00;;
12884;SDS011;6510;51.362;7.370;2022-07-12T14:44:42;1.10;;;1.10;;
12884;SDS011;6510;51.362;7.370;2022-07-12T14:47:08;1.00;;;1.00;;
12884;SDS011;6510;51.362;7.370;2022-07-12T14:49:35;1.10;;;1.10;;
12884;SDS011;6510;51.362;7.370;2022-07-12T14:52:02;1.30;;;1.30;;
12884;SDS011;6510;51.362;7.370;2022-07-12T14:54:29;1.40;;;1.30;;
12884;SDS011;6510;51.362;7.370;2022-07-12T14:56:54;1.33;;;1.00;;
12884;SDS011;6510;51.362;7.370;2022-07-12T14:59:20;1.00;;;1.00;;
12884;SDS011;6510;51.362;7.370;2022-07-12T15:01:47;1.20;;;1.20;;
12884;SDS011;6510;51.362;7.370;2022-07-12T15:04:14;1.20;;;1.20;;
12884;SDS011;6510;51.362;7.370;2022-07-12T15:06:39;1.20;;;1.20;;
12884;SDS011;6510;51.362;7.370;2022-07-12T15:09:05;1.10;;;1.10;;
12884;SDS011;6510;51.362;7.370;2022-07-12T15:11:31;1.20;;;1.20;;
12884;SDS011;6510;51.362;7.370;2022-07-12T15:13:57;1.35;;;1.20;;
12884;SDS011;6510;51.362;7.370;2022-07-12T15:16:23;1.10;;;1.00;;
12884;SDS011;6510;51.362;7.370;2022-07-12T15:18:48;1.30;;;1.20;;
12884;SDS011;6510;51.362;7.370;2022-07-12T15:21:14;1.77;;;1.40;;
12884;SDS011;6510;51.362;7.370;2022-07-12T15:23:40;3.80;;;3.50;;
12884;SDS011;6510;51.362;7.370;2022-07-12T15:26:06;1.80;;;1.60;;
12884;SDS011;6510;51.362;7.370;2022-07-12T15:28:32;1.42;;;1.33;;
12884;SDS011;6510;51.362;7.370;2022-07-12T15:30:58;1.42;;;1.30;;